createdAt,value
2023-03-13T00:01:42.464Z,26.10
2023-03-13T00:04:10.794Z,26.40
2023-03-13T00:06:40.451Z,25.50
2023-03-13T00:09:11.622Z,29.70
2023-03-13T00:11:40.046Z,22.90
2023-03-13T00:14:08.711Z,23.50
2023-03-13T00:16:40.216Z,23.50
2023-03-13T00:19:09.537Z,24.30
2023-03-13T00:21:41.611Z,26.90
2023-03-13T00:24:11.483Z,28.50
2023-03-13T00:26:39.659Z,27.10
2023-03-13T00:29:07.993Z,27.10
2023-03-13T00:31:36.434Z,24.40
2023-03-13T00:34:05.358Z,32.30
2023-03-13T00:36:35.494Z,26.80
2023-03-13T00:39:05.910Z,25.90
2023-03-13T00:41:37.493Z,25.80
2023-03-13T00:44:06.929Z,24.90
2023-03-13T00:46:35.913Z,25.10
2023-03-13T00:49:04.721Z,21.00
2023-03-13T00:51:35.915Z,24.00
2023-03-13T00:54:05.121Z,22.50
2023-03-13T00:56:34.813Z,17.50
2023-03-13T00:59:03.476Z,20.20
2023-03-13T01:01:35.371Z,20.10
2023-03-13T01:04:11.925Z,30.50
2023-03-13T01:06:43.302Z,20.30
2023-03-13T01:09:17.441Z,20.90
2023-03-13T01:11:47.024Z,20.90
2023-03-13T01:14:17.970Z,23.80
2023-03-13T01:16:46.651Z,23.00
2023-03-13T01:19:16.524Z,23.30
2023-03-13T01:21:46.947Z,23.10
2023-03-13T01:24:15.450Z,26.00
2023-03-13T01:26:45.127Z,24.60
2023-03-13T01:29:14.131Z,28.10
2023-03-13T01:31:42.630Z,26.00
2023-03-13T01:34:11.890Z,29.50
2023-03-13T01:36:40.219Z,24.00
2023-03-13T01:39:08.637Z,25.50
2023-03-13T01:41:37.731Z,26.20
2023-03-13T01:44:06.075Z,29.20
2023-03-13T01:46:37.062Z,27.20
2023-03-13T01:49:25.326Z,28.10
2023-03-13T01:52:08.853Z,23.00
2023-03-13T01:54:44.988Z,24.40
2023-03-13T01:57:24.667Z,23.30
2023-03-13T02:00:02.140Z,26.60
2023-03-13T02:02:44.901Z,24.80
2023-03-13T02:05:15.293Z,23.10
2023-03-13T02:07:51.034Z,26.70
2023-03-13T02:10:22.329Z,26.70
2023-03-13T02:12:52.211Z,21.80
2023-03-13T02:15:22.962Z,20.50
2023-03-13T02:17:51.831Z,22.60
2023-03-13T02:20:22.458Z,22.00
2023-03-13T02:23:10.825Z,21.50
2023-03-13T02:25:44.340Z,20.00
2023-03-13T02:28:16.529Z,20.90
2023-03-13T02:30:45.784Z,23.80
2023-03-13T02:33:15.710Z,22.70
2023-03-13T02:35:45.836Z,22.20
2023-03-13T02:38:26.957Z,26.50
2023-03-13T02:40:57.029Z,20.80
2023-03-13T02:43:31.222Z,19.70
2023-03-13T02:46:09.886Z,19.60
2023-03-13T02:48:47.512Z,21.00
2023-03-13T02:51:39.328Z,26.60
2023-03-13T02:54:14.584Z,21.50
2023-03-13T02:56:48.414Z,23.50
2023-03-13T02:59:17.398Z,24.60
2023-03-13T03:01:46.382Z,19.60
2023-03-13T03:04:14.538Z,18.10
2023-03-13T03:06:42.608Z,21.50
2023-03-13T03:09:11.049Z,24.10
2023-03-13T03:11:39.542Z,27.60
2023-03-13T03:14:11.977Z,31.90
2023-03-13T03:16:43.638Z,25.60
2023-03-13T03:19:11.962Z,28.70
2023-03-13T03:21:40.296Z,28.20
2023-03-13T03:24:08.925Z,26.10
2023-03-13T03:26:37.809Z,29.90
2023-03-13T03:29:11.244Z,25.90
2023-03-13T03:31:40.234Z,24.50
2023-03-13T03:34:08.537Z,29.50
2023-03-13T03:36:37.046Z,29.30
2023-03-13T03:39:05.522Z,28.90
2023-03-13T03:41:34.014Z,26.80
2023-03-13T03:44:02.381Z,35.10
2023-03-13T03:46:38.042Z,36.60
2023-03-13T03:49:06.222Z,28.10
2023-03-13T03:51:34.738Z,31.40
2023-03-13T03:54:03.165Z,23.80
2023-03-13T03:56:32.177Z,32.70
2023-03-13T03:59:00.848Z,33.10
2023-03-13T04:01:39.980Z,30.60
2023-03-13T04:04:08.309Z,39.20
2023-03-13T04:06:36.582Z,39.90
2023-03-13T04:09:06.328Z,52.60
2023-03-13T04:11:35.992Z,47.50
2023-03-13T04:14:05.089Z,34.20
2023-03-13T04:16:33.577Z,35.50
2023-03-13T04:19:02.226Z,32.60
2023-03-13T04:21:30.739Z,36.10
2023-03-13T04:24:06.406Z,42.60
2023-03-13T04:26:35.720Z,34.30
2023-03-13T04:29:06.507Z,29.70
2023-03-13T04:32:01.513Z,34.50
2023-03-13T04:34:32.472Z,31.20
2023-03-13T04:37:03.081Z,26.00
2023-03-13T04:39:41.908Z,30.60
2023-03-13T04:42:28.884Z,25.20
2023-03-13T04:45:16.543Z,33.60
2023-03-13T04:48:01.052Z,25.00
2023-03-13T04:50:29.146Z,27.20
2023-03-13T04:53:32.659Z,29.80
2023-03-13T04:56:41.539Z,32.30
2023-03-13T04:59:33.712Z,45.00
2023-03-13T05:02:02.066Z,35.70
2023-03-13T05:04:53.609Z,34.50
2023-03-13T05:07:29.581Z,37.10
2023-03-13T05:10:11.726Z,35.50
2023-03-13T05:13:05.013Z,36.30
2023-03-13T05:15:51.276Z,33.20
2023-03-13T05:18:36.402Z,36.70
2023-03-13T05:21:27.270Z,36.40
2023-03-13T05:24:16.029Z,39.40
2023-03-13T05:26:57.657Z,40.70
2023-03-13T05:29:44.311Z,37.90
2023-03-13T05:32:51.283Z,33.00
2023-03-13T05:35:40.699Z,25.50
2023-03-13T05:38:31.602Z,40.30
2023-03-13T05:41:26.372Z,31.30
2023-03-13T05:44:02.854Z,37.10
2023-03-13T05:46:37.348Z,31.30
2023-03-13T05:49:31.753Z,32.10
2023-03-13T05:52:12.683Z,34.70
2023-03-13T05:55:09.979Z,36.70
2023-03-13T05:58:01.169Z,28.30
2023-03-13T06:00:43.880Z,38.30
2023-03-13T06:03:32.327Z,38.20
2023-03-13T06:06:01.056Z,32.90
2023-03-13T06:08:38.225Z,40.60
2023-03-13T06:11:06.655Z,38.00
2023-03-13T06:13:35.741Z,35.00
2023-03-13T06:16:11.560Z,30.30
2023-03-13T06:18:46.390Z,32.80
2023-03-13T06:21:16.040Z,36.10
2023-03-13T06:23:44.665Z,35.30
2023-03-13T06:26:13.148Z,36.00
2023-03-13T06:28:41.750Z,32.30
2023-03-13T06:31:11.184Z,36.30
2023-03-13T06:33:39.577Z,32.60
2023-03-13T06:36:08.481Z,36.10
2023-03-13T06:38:36.855Z,27.40
2023-03-13T06:41:05.399Z,34.90
2023-03-13T06:43:34.339Z,30.50
2023-03-13T06:46:06.081Z,34.80
2023-03-13T06:48:35.087Z,30.00
2023-03-13T06:51:03.643Z,27.50
2023-03-13T06:53:32.250Z,25.20
2023-03-13T06:56:02.193Z,30.60
2023-03-13T06:58:32.952Z,26.50
2023-03-13T07:01:11.189Z,31.00
2023-03-13T07:03:41.720Z,32.30
2023-03-13T07:06:12.488Z,26.10
2023-03-13T07:08:41.454Z,29.50
2023-03-13T07:11:13.229Z,31.90
2023-03-13T07:13:42.794Z,26.10
2023-03-13T07:16:13.745Z,28.90
2023-03-13T07:18:42.739Z,31.60
2023-03-13T07:21:12.121Z,33.70
2023-03-13T07:23:40.686Z,28.70
2023-03-13T07:26:12.938Z,26.10
2023-03-13T07:28:42.140Z,33.60
2023-03-13T07:31:13.176Z,29.30
2023-03-13T07:33:42.378Z,34.50
2023-03-13T07:36:12.629Z,24.50
2023-03-13T07:38:41.542Z,35.50
2023-03-13T07:41:13.816Z,31.60
2023-03-13T07:43:42.584Z,34.20
2023-03-13T07:46:20.417Z,28.80
2023-03-13T07:48:49.766Z,31.20
2023-03-13T07:51:42.105Z,36.80
2023-03-13T07:54:12.292Z,28.90
2023-03-13T07:56:40.721Z,31.00
2023-03-13T07:59:09.911Z,27.90
2023-03-13T08:01:38.650Z,32.90
2023-03-13T08:04:07.685Z,32.60
2023-03-13T08:06:36.970Z,25.00
2023-03-13T08:09:06.560Z,26.50
2023-03-13T08:11:35.279Z,24.60
2023-03-13T08:14:03.912Z,21.60
2023-03-13T08:16:34.800Z,19.10
2023-03-13T08:19:06.199Z,27.40
2023-03-13T08:21:37.559Z,35.30
2023-03-13T08:24:08.460Z,26.90
2023-03-13T08:26:39.560Z,29.90
2023-03-13T08:29:11.223Z,33.70
2023-03-13T08:31:48.270Z,21.40
2023-03-13T08:34:18.610Z,24.30
2023-03-13T08:36:47.497Z,26.40
2023-03-13T08:39:21.049Z,27.60
2023-03-13T08:41:50.324Z,16.80
2023-03-13T08:44:23.156Z,22.40
2023-03-13T08:46:51.574Z,17.50
2023-03-13T08:49:20.129Z,18.80
2023-03-13T08:51:48.626Z,20.90
2023-03-13T08:54:17.076Z,16.80
2023-03-13T08:56:46.853Z,17.50
2023-03-13T08:59:18.516Z,24.50
2023-03-13T09:01:46.939Z,17.00
2023-03-13T09:04:15.895Z,19.30
2023-03-13T09:06:44.321Z,17.90
2023-03-13T09:09:14.522Z,14.00
2023-03-13T09:11:42.880Z,13.70
2023-03-13T09:14:11.634Z,7.70
2023-03-13T09:16:41.078Z,12.80
2023-03-13T09:19:09.963Z,10.10
2023-03-13T09:21:38.805Z,10.30
2023-03-13T09:24:08.717Z,11.40
2023-03-13T09:26:37.451Z,13.60
2023-03-13T09:29:05.911Z,11.10
2023-03-13T09:31:34.877Z,14.30
2023-03-13T09:34:04.787Z,11.80
2023-03-13T09:36:33.452Z,8.10
2023-03-13T09:39:02.770Z,8.50
2023-03-13T09:41:39.280Z,11.80
2023-03-13T09:44:10.809Z,11.10
2023-03-13T09:46:55.043Z,9.30
2023-03-13T09:49:45.714Z,13.20
2023-03-13T09:52:22.708Z,9.80
2023-03-13T09:55:05.070Z,15.00
2023-03-13T09:57:46.978Z,13.70
2023-03-13T10:00:27.645Z,10.90
2023-03-13T10:03:11.286Z,4.40
2023-03-13T10:06:18.643Z,7.10
2023-03-13T10:08:47.557Z,12.10
2023-03-13T10:11:30.187Z,16.70
2023-03-13T10:14:12.264Z,14.60
2023-03-13T10:16:56.836Z,12.20
2023-03-13T10:19:42.812Z,12.20
2023-03-13T10:22:26.529Z,7.00
2023-03-13T10:25:10.652Z,14.80
2023-03-13T10:27:51.926Z,14.60
2023-03-13T10:30:43.781Z,7.90
2023-03-13T10:33:12.100Z,9.60
2023-03-13T10:35:42.787Z,8.00
2023-03-13T10:38:15.778Z,7.20
2023-03-13T10:40:44.656Z,8.60
2023-03-13T10:43:22.482Z,8.70
2023-03-13T10:45:52.263Z,7.80
2023-03-13T10:48:23.946Z,8.30
2023-03-13T10:50:57.556Z,8.90
2023-03-13T10:53:29.955Z,8.50
2023-03-13T10:56:20.407Z,7.30
2023-03-13T10:58:51.393Z,6.80
2023-03-13T11:01:32.714Z,9.10
2023-03-13T11:04:39.581Z,11.10
2023-03-13T11:07:27.424Z,8.50
2023-03-13T11:10:19.135Z,6.30
2023-03-13T11:12:53.762Z,7.60
2023-03-13T11:15:35.611Z,8.50
2023-03-13T11:18:16.274Z,7.60
2023-03-13T11:20:47.055Z,13.60
2023-03-13T11:23:24.799Z,6.70
2023-03-13T11:26:12.024Z,6.90
2023-03-13T11:28:54.332Z,7.00
2023-03-13T11:31:33.630Z,6.70
2023-03-13T11:34:07.176Z,8.90
2023-03-13T11:36:39.226Z,7.20
2023-03-13T11:39:30.905Z,7.80
2023-03-13T11:42:14.874Z,7.70
2023-03-13T11:45:08.810Z,8.30
2023-03-13T11:48:08.398Z,7.70
2023-03-13T11:51:21.046Z,10.30
2023-03-13T11:53:58.618Z,11.00
2023-03-13T11:57:15.400Z,8.90
2023-03-13T12:02:34.338Z,8.50
2023-03-13T12:05:11.632Z,7.50
2023-03-13T12:07:48.468Z,6.10
2023-03-13T12:10:41.457Z,7.80
2023-03-13T12:13:20.332Z,6.90
2023-03-13T12:15:54.583Z,6.30
2023-03-13T12:18:36.784Z,7.50
2023-03-13T12:21:14.657Z,10.90
2023-03-13T12:24:05.983Z,10.20
2023-03-13T12:26:51.872Z,7.40
2023-03-13T12:29:49.395Z,11.20
2023-03-13T12:32:46.370Z,11.80
2023-03-13T12:35:29.398Z,6.20
2023-03-13T12:38:04.028Z,9.00
2023-03-13T12:40:39.736Z,8.60
2023-03-13T12:43:18.948Z,5.90
2023-03-13T12:46:33.458Z,7.20
2023-03-13T12:49:26.389Z,7.50
2023-03-13T12:52:32.627Z,11.10
2023-03-13T12:55:49.550Z,11.80
2023-03-13T12:58:21.937Z,9.50
2023-03-13T13:00:51.982Z,7.30
2023-03-13T13:03:26.010Z,7.10
2023-03-13T13:06:13.234Z,10.30
2023-03-13T13:08:44.523Z,8.60
2023-03-13T13:11:37.862Z,11.60
2023-03-13T13:14:28.988Z,10.20
2023-03-13T13:17:01.431Z,9.60
2023-03-13T13:19:42.588Z,13.20
2023-03-13T13:22:39.185Z,7.10
2023-03-13T13:25:10.670Z,7.20
2023-03-13T13:27:39.256Z,10.20
2023-03-13T13:30:17.362Z,10.00
2023-03-13T13:32:50.705Z,9.60
2023-03-13T13:35:35.058Z,12.50
2023-03-13T13:38:19.012Z,11.10
2023-03-13T13:41:11.567Z,7.60
2023-03-13T13:43:43.604Z,7.40
2023-03-13T13:46:33.584Z,3.40
2023-03-13T13:49:06.119Z,10.70
2023-03-13T13:51:40.059Z,8.00
2023-03-13T13:54:18.573Z,11.80
2023-03-13T13:56:52.706Z,8.50
2023-03-13T13:59:21.444Z,7.80
2023-03-13T14:02:13.950Z,9.20
2023-03-13T14:04:48.844Z,8.50
2023-03-13T14:07:45.100Z,10.10
2023-03-13T14:10:30.508Z,8.50
2023-03-13T14:13:01.070Z,8.40
2023-03-13T14:15:31.853Z,9.40
2023-03-13T14:18:13.863Z,10.70
2023-03-13T14:20:54.871Z,17.20
2023-03-13T14:23:42.791Z,14.90
2023-03-13T14:26:28.132Z,8.90
2023-03-13T14:29:03.602Z,5.90
2023-03-13T14:31:37.891Z,11.40
2023-03-13T14:34:10.277Z,11.80
2023-03-13T14:36:52.252Z,12.30
2023-03-13T14:39:33.392Z,8.60
2023-03-13T14:42:22.576Z,10.90
2023-03-13T14:44:54.235Z,8.70
2023-03-13T14:47:31.032Z,6.60
2023-03-13T14:50:05.069Z,9.60
2023-03-13T14:52:35.392Z,9.60
2023-03-13T14:55:26.198Z,8.00
2023-03-13T14:58:07.867Z,12.50
2023-03-13T15:00:39.436Z,7.80
2023-03-13T15:03:25.831Z,7.20
2023-03-13T15:06:08.584Z,10.10
2023-03-13T15:08:43.062Z,7.70
2023-03-13T15:11:22.400Z,10.00
2023-03-13T15:13:51.492Z,9.00
2023-03-13T15:16:22.029Z,13.60
2023-03-13T15:18:51.926Z,13.20
2023-03-13T15:21:38.583Z,8.50
2023-03-13T15:24:15.734Z,8.60
2023-03-13T15:26:44.794Z,12.60
2023-03-13T15:29:14.401Z,11.90
2023-03-13T15:31:43.160Z,17.10
2023-03-13T15:34:14.695Z,18.90
2023-03-13T15:36:43.147Z,8.30
2023-03-13T15:39:19.550Z,8.60
2023-03-13T15:41:47.898Z,11.50
2023-03-13T15:44:16.493Z,9.00
2023-03-13T15:46:46.653Z,7.60
2023-03-13T15:49:15.333Z,33.40
2023-03-13T15:51:44.407Z,10.50
2023-03-13T15:54:13.107Z,12.30
2023-03-13T15:56:42.527Z,7.50
2023-03-13T15:59:12.896Z,12.80
2023-03-13T16:01:43.038Z,12.70
2023-03-13T16:04:12.251Z,10.30
2023-03-13T16:06:41.165Z,12.60
2023-03-13T16:09:12.590Z,10.40
2023-03-13T16:11:41.485Z,15.50
2023-03-13T16:14:10.128Z,13.70
2023-03-13T16:16:39.739Z,15.30
2023-03-13T16:19:10.760Z,10.10
2023-03-13T16:21:43.466Z,11.30
2023-03-13T16:24:11.898Z,15.10
2023-03-13T16:26:41.061Z,13.10
2023-03-13T16:29:15.490Z,11.30
2023-03-13T16:31:43.763Z,13.10
2023-03-13T16:34:12.513Z,15.80
2023-03-13T16:36:40.724Z,21.50
2023-03-13T16:39:17.031Z,17.50
2023-03-13T16:41:45.601Z,19.50
2023-03-13T16:44:14.678Z,27.30
2023-03-13T16:46:59.071Z,19.50
2023-03-13T16:49:32.838Z,21.20
2023-03-13T16:52:01.392Z,22.10
2023-03-13T16:54:29.800Z,17.70
2023-03-13T16:56:59.315Z,17.10
2023-03-13T16:59:28.623Z,19.60
2023-03-13T17:01:56.791Z,25.30
2023-03-13T17:04:25.239Z,23.20
2023-03-13T17:06:53.653Z,27.20
2023-03-13T17:09:22.230Z,17.90
2023-03-13T17:11:50.513Z,18.40
2023-03-13T17:14:18.729Z,12.90
2023-03-13T17:16:47.771Z,20.10
2023-03-13T17:19:17.262Z,20.70
2023-03-13T17:21:45.874Z,18.00
2023-03-13T17:24:14.523Z,21.30
2023-03-13T17:26:42.763Z,23.50
2023-03-13T17:29:17.276Z,28.10
2023-03-13T17:31:46.164Z,19.40
2023-03-13T17:34:15.705Z,17.80
2023-03-13T17:36:45.696Z,17.30
2023-03-13T17:39:15.984Z,23.30
2023-03-13T17:41:44.161Z,23.50
2023-03-13T17:44:12.607Z,23.70
2023-03-13T17:46:44.434Z,30.40
2023-03-13T17:49:14.755Z,27.50
2023-03-13T17:51:46.366Z,31.50
2023-03-13T17:54:16.040Z,35.50
2023-03-13T17:56:45.862Z,28.40
2023-03-13T17:59:17.832Z,34.10
2023-03-13T18:01:46.954Z,46.20
2023-03-13T18:04:15.558Z,77.80
2023-03-13T18:06:46.498Z,39.90
2023-03-13T18:09:21.150Z,44.60
2023-03-13T18:11:50.246Z,42.20
2023-03-13T18:14:18.808Z,41.10
2023-03-13T18:16:50.443Z,47.70
2023-03-13T18:19:22.697Z,44.00
2023-03-13T18:21:55.845Z,43.60
2023-03-13T18:24:25.252Z,45.70
2023-03-13T18:26:53.597Z,32.40
2023-03-13T18:29:27.268Z,44.70
2023-03-13T18:31:58.904Z,30.50
2023-03-13T18:34:29.004Z,27.50
2023-03-13T18:37:03.888Z,26.60
2023-03-13T18:39:33.165Z,23.00
2023-03-13T18:42:02.328Z,27.80
2023-03-13T18:44:30.555Z,31.40
2023-03-13T18:46:58.665Z,35.20
2023-03-13T18:49:27.285Z,30.30
2023-03-13T18:51:55.824Z,32.20
2023-03-13T18:54:23.941Z,31.30
2023-03-13T18:56:52.412Z,26.30
2023-03-13T18:59:22.506Z,33.90
2023-03-13T19:01:51.365Z,34.30
2023-03-13T19:04:20.335Z,41.00
2023-03-13T19:06:48.888Z,37.30
2023-03-13T19:09:42.184Z,28.70
2023-03-13T19:12:13.162Z,37.30
2023-03-13T19:14:42.102Z,28.60
2023-03-13T19:17:20.574Z,38.00
2023-03-13T19:19:48.892Z,24.40
2023-03-13T19:22:17.600Z,26.10
2023-03-13T19:24:46.274Z,21.80
2023-03-13T19:27:15.025Z,19.90
2023-03-13T19:29:44.128Z,24.30
2023-03-13T19:32:14.907Z,17.30
2023-03-13T19:34:43.690Z,17.40
2023-03-13T19:37:14.443Z,16.90
2023-03-13T19:39:43.090Z,17.80
2023-03-13T19:42:12.094Z,24.00
2023-03-13T19:44:41.617Z,19.20
2023-03-13T19:47:15.955Z,21.10
2023-03-13T19:49:45.845Z,19.50
2023-03-13T19:52:14.496Z,20.60
2023-03-13T19:54:42.642Z,29.60
2023-03-13T19:57:12.331Z,18.00
2023-03-13T19:59:41.490Z,20.60
2023-03-13T20:02:11.727Z,20.00
2023-03-13T20:04:42.768Z,24.20
2023-03-13T20:07:11.493Z,21.30
2023-03-13T20:09:39.712Z,18.40
2023-03-13T20:12:08.129Z,21.20
2023-03-13T20:14:36.237Z,22.10
2023-03-13T20:17:04.947Z,22.80
2023-03-13T20:19:33.846Z,18.40
2023-03-13T20:22:05.411Z,18.00
2023-03-13T20:24:33.751Z,24.00
2023-03-13T20:27:04.368Z,23.30
2023-03-13T20:29:33.992Z,21.50
2023-03-13T20:32:04.947Z,18.70
2023-03-13T20:34:34.651Z,21.20
2023-03-13T20:37:04.061Z,22.50
2023-03-13T20:39:34.282Z,21.50
2023-03-13T20:42:03.428Z,26.90
2023-03-13T20:44:31.856Z,16.50
2023-03-13T20:47:00.606Z,17.80
2023-03-13T20:49:29.230Z,22.10
2023-03-13T20:51:57.550Z,22.80
2023-03-13T20:54:26.050Z,26.70
2023-03-13T20:56:55.101Z,18.10
2023-03-13T20:59:23.346Z,19.90
2023-03-13T21:01:51.631Z,21.70
2023-03-13T21:04:19.933Z,23.10
2023-03-13T21:06:50.250Z,23.00
2023-03-13T21:09:18.610Z,30.60
2023-03-13T21:11:46.975Z,21.90
2023-03-13T21:14:15.388Z,20.30
2023-03-13T21:16:43.489Z,25.90
2023-03-13T21:19:11.597Z,21.60
2023-03-13T21:21:40.330Z,18.90
2023-03-13T21:24:08.823Z,19.70
2023-03-13T21:26:37.677Z,22.00
2023-03-13T21:29:06.517Z,25.00
2023-03-13T21:31:36.089Z,30.60
2023-03-13T21:34:05.721Z,25.10
2023-03-13T21:36:34.180Z,26.70
2023-03-13T21:39:02.953Z,27.20
2023-03-13T21:41:33.668Z,24.40
2023-03-13T21:44:03.094Z,26.90
2023-03-13T21:46:33.399Z,31.30
2023-03-13T21:49:02.507Z,32.70
2023-03-13T21:51:30.680Z,28.50
2023-03-13T21:53:58.678Z,22.40
2023-03-13T21:56:26.777Z,22.70
2023-03-13T21:58:54.976Z,27.50
2023-03-13T22:01:22.948Z,22.70
2023-03-13T22:03:51.046Z,25.70
2023-03-13T22:06:22.701Z,30.20
2023-03-13T22:08:51.841Z,20.60
2023-03-13T22:11:20.012Z,31.10
2023-03-13T22:13:48.104Z,25.50
2023-03-13T22:16:16.097Z,30.40
2023-03-13T22:18:44.212Z,23.50
2023-03-13T22:21:12.400Z,26.40
2023-03-13T22:23:40.547Z,30.80
2023-03-13T22:26:11.373Z,31.40
2023-03-13T22:28:40.184Z,30.80
2023-03-13T22:31:11.264Z,27.90
2023-03-13T22:33:39.304Z,30.90
2023-03-13T22:36:09.232Z,32.80
2023-03-13T22:38:39.168Z,29.70
2023-03-13T22:41:11.845Z,39.10
2023-03-13T22:43:40.121Z,31.10
2023-03-13T22:46:09.370Z,26.40
2023-03-13T22:48:37.762Z,33.40
2023-03-13T22:51:14.445Z,24.80
2023-03-13T22:53:43.147Z,28.60
2023-03-13T22:56:12.521Z,29.20
2023-03-13T22:58:41.879Z,29.10
2023-03-13T23:01:12.853Z,24.90
2023-03-13T23:03:41.600Z,28.30
2023-03-13T23:06:15.755Z,22.60
2023-03-13T23:08:44.650Z,30.10
2023-03-13T23:11:13.086Z,24.50
2023-03-13T23:13:41.202Z,23.80
2023-03-13T23:16:11.993Z,22.30
2023-03-13T23:18:41.936Z,21.40
2023-03-13T23:21:13.465Z,23.10
2023-03-13T23:23:42.068Z,19.90
2023-03-13T23:26:13.203Z,26.20
2023-03-13T23:28:41.399Z,24.90
2023-03-13T23:31:14.981Z,24.30
2023-03-13T23:33:43.074Z,26.10
2023-03-13T23:36:13.945Z,29.40
2023-03-13T23:38:42.685Z,24.90
2023-03-13T23:41:13.361Z,37.10
2023-03-13T23:43:41.707Z,37.80
2023-03-13T23:46:19.087Z,38.40
2023-03-13T23:48:47.411Z,41.90
2023-03-13T23:51:15.546Z,45.80
2023-03-13T23:53:44.331Z,45.30
2023-03-13T23:56:12.618Z,48.00
2023-03-13T23:58:41.668Z,53.30
